NCAR-RAP Real-Time Weather Data

Output produced by METARs form (24 January 2022  23:23 UTC)
found at http://weather.rap.ucar.edu/surface/
 
KALB 242251Z 00000KT 10SM OVC090 M05/M14 A2986 RMK AO2 SLP117 T10501139 $
KALB 242151Z 00000KT 10SM BKN090 BKN240 M05/M14 A2986 RMK AO2 SLP114 T10501144
KALB 242051Z 00000KT 10SM FEW040 BKN095 BKN250 M05/M14 A2987 RMK AO2 SLP118 T10501144 55010
KALB 241951Z 06003KT 10SM FEW040 SCT120 BKN150 BKN250 M06/M15 A2985 RMK AO2 SLP113 T10561150
KALB 241851Z 00000KT 10SM FEW037 BKN150 BKN250 M06/M15 A2989 RMK AO2 SLP124 T10561150
KALB 241751Z 00000KT 10SM FEW035 BKN160 BKN250 M06/M15 A2990 RMK AO2 SLP128 4/002 933005 60000 T10561150 11056 21111 58027
KALB 241651Z 00000KT 10SM FEW030 FEW170 FEW250 M06/M14 A2993 RMK AO2 SLP141 T10561139
KALB 241551Z 34004KT 10SM FEW030 FEW250 M07/M14 A2997 RMK AO2 SLP152 T10671144
KALB 241451Z 33004KT 10SM FEW035 FEW055 FEW250 M08/M13 A2998 RMK AO2 SLP156 60000 T10781133 51015
KALB 241351Z 01003KT 10SM FEW030 FEW250 M09/M14 A2996 RMK AO2 SLP151 T10941144